createdAt,value
2023-05-19T00:00:39.928Z,7.14
2023-05-19T00:03:10.096Z,7.11
2023-05-19T00:05:40.918Z,7.08
2023-05-19T00:08:10.563Z,7.04
2023-05-19T00:10:40.723Z,7.00
2023-05-19T00:13:09.312Z,6.95
2023-05-19T00:15:38.200Z,6.91
2023-05-19T00:18:09.063Z,6.89
2023-05-19T00:20:38.948Z,6.88
2023-05-19T00:23:07.034Z,6.86
2023-05-19T00:25:35.147Z,6.81
2023-05-19T00:28:03.452Z,6.77
2023-05-19T00:30:31.939Z,6.75
2023-05-19T00:33:00.272Z,6.74
2023-05-19T00:35:28.486Z,6.72
2023-05-19T00:37:57.922Z,6.71
2023-05-19T00:40:26.902Z,6.69
2023-05-19T00:42:55.003Z,6.69
2023-05-19T00:45:23.278Z,6.71
2023-05-19T00:47:51.425Z,6.70
2023-05-19T00:50:19.556Z,6.70
2023-05-19T00:52:47.741Z,6.70
2023-05-19T00:55:17.395Z,6.68
2023-05-19T00:57:45.946Z,6.65
2023-05-19T01:00:15.430Z,6.65
2023-05-19T01:02:44.142Z,6.64
2023-05-19T01:05:12.292Z,6.63
2023-05-19T01:07:41.500Z,6.62
2023-05-19T01:10:10.455Z,6.59
2023-05-19T01:12:41.560Z,6.56
2023-05-19T01:15:11.006Z,6.51
2023-05-19T01:17:43.477Z,6.48
2023-05-19T01:20:17.250Z,6.44
2023-05-19T01:23:09.312Z,6.37
2023-05-19T01:26:04.299Z,6.32
2023-05-19T01:29:08.621Z,6.28
2023-05-19T01:31:40.061Z,6.23
2023-05-19T01:34:08.818Z,6.19
2023-05-19T01:36:37.431Z,6.17
2023-05-19T01:39:05.771Z,6.14
2023-05-19T01:41:35.316Z,6.11
2023-05-19T01:44:03.492Z,6.08
2023-05-19T01:46:31.619Z,6.04
2023-05-19T01:49:01.198Z,6.00
2023-05-19T01:51:29.314Z,5.97
2023-05-19T01:53:57.490Z,5.94
2023-05-19T01:56:31.600Z,5.88
2023-05-19T01:59:05.258Z,5.81
2023-05-19T02:01:39.241Z,5.77
2023-05-19T02:04:19.671Z,5.73
2023-05-19T02:06:53.132Z,5.69
2023-05-19T02:09:25.095Z,5.68
2023-05-19T02:11:56.507Z,5.65
2023-05-19T02:14:31.106Z,5.64
2023-05-19T02:16:59.992Z,5.59
2023-05-19T02:19:32.106Z,5.58
2023-05-19T02:22:00.276Z,5.58
2023-05-19T02:24:28.429Z,5.55
2023-05-19T02:26:56.552Z,5.51
2023-05-19T02:29:24.694Z,5.49
2023-05-19T02:31:52.809Z,5.47
2023-05-19T02:34:21.058Z,5.45
2023-05-19T02:36:51.613Z,5.41
2023-05-19T02:39:19.908Z,5.39
2023-05-19T02:41:47.987Z,5.38
2023-05-19T02:44:16.124Z,5.36
2023-05-19T02:46:44.411Z,5.32
2023-05-19T02:49:12.586Z,5.33
2023-05-19T02:51:40.686Z,5.31
2023-05-19T02:54:10.195Z,5.29
2023-05-19T02:56:38.315Z,5.27
2023-05-19T02:59:06.437Z,5.24
2023-05-19T03:01:34.625Z,5.22
2023-05-19T03:04:02.811Z,5.22
2023-05-19T03:06:32.855Z,5.20
2023-05-19T03:09:00.926Z,5.18
2023-05-19T03:11:30.989Z,5.16
2023-05-19T03:13:59.803Z,5.14
2023-05-19T03:16:28.176Z,5.15
2023-05-19T03:18:57.259Z,5.17
2023-05-19T03:21:25.511Z,5.19
2023-05-19T03:23:54.675Z,5.22
2023-05-19T03:26:24.571Z,5.25
2023-05-19T03:28:54.231Z,5.27
2023-05-19T03:31:22.407Z,5.29
2023-05-19T03:33:50.534Z,5.29
2023-05-19T03:36:18.676Z,5.34
2023-05-19T03:38:46.792Z,5.38
2023-05-19T03:41:14.979Z,5.44
2023-05-19T03:43:43.113Z,5.49
2023-05-19T03:46:12.627Z,5.55
2023-05-19T03:48:41.288Z,5.62
2023-05-19T03:51:09.475Z,5.69
2023-05-19T03:53:38.120Z,5.77
2023-05-19T03:56:07.594Z,5.82
2023-05-19T03:58:37.031Z,5.87
2023-05-19T04:01:05.206Z,5.94
2023-05-19T04:03:34.725Z,6.03
2023-05-19T04:06:02.936Z,6.09
2023-05-19T04:08:31.052Z,6.12
2023-05-19T04:10:59.206Z,6.16
2023-05-19T04:13:27.308Z,6.23
2023-05-19T04:15:55.496Z,6.31
2023-05-19T04:18:23.659Z,6.37
2023-05-19T04:20:53.184Z,6.45
2023-05-19T04:23:21.290Z,6.51
2023-05-19T04:25:50.304Z,6.57
2023-05-19T04:28:18.693Z,6.61
2023-05-19T04:30:47.230Z,6.68
2023-05-19T04:33:15.326Z,6.74
2023-05-19T04:35:43.866Z,6.76
2023-05-19T04:38:13.348Z,6.86
2023-05-19T04:40:42.578Z,6.97
2023-05-19T04:43:11.365Z,7.05
2023-05-19T04:45:42.509Z,7.13
2023-05-19T04:48:10.708Z,7.22
2023-05-19T04:50:42.161Z,7.30
2023-05-19T04:53:11.443Z,7.40
2023-05-19T04:55:40.947Z,7.51
2023-05-19T04:58:09.120Z,7.60
2023-05-19T05:00:38.208Z,7.68
2023-05-19T05:03:07.296Z,7.77
2023-05-19T05:05:36.030Z,7.90
2023-05-19T05:08:04.500Z,8.05
2023-05-19T05:10:32.981Z,8.21
2023-05-19T05:13:03.424Z,8.37
2023-05-19T05:15:32.102Z,8.51
2023-05-19T05:18:00.844Z,8.65
2023-05-19T05:20:29.652Z,8.77
2023-05-19T05:22:58.731Z,8.93
2023-05-19T05:25:27.582Z,9.08
2023-05-19T05:27:55.797Z,9.24
2023-05-19T05:30:25.309Z,9.39
2023-05-19T05:32:53.761Z,9.54
2023-05-19T05:35:23.579Z,9.73
2023-05-19T05:37:51.689Z,9.91
2023-05-19T05:40:20.548Z,10.09
2023-05-19T05:42:48.718Z,10.23
2023-05-19T05:45:17.001Z,10.32
2023-05-19T05:47:47.217Z,10.43
2023-05-19T05:50:16.297Z,10.60
2023-05-19T05:52:47.149Z,10.76
2023-05-19T05:55:17.383Z,10.91
2023-05-19T05:57:45.556Z,11.09
2023-05-19T06:00:16.413Z,11.32
2023-05-19T06:02:47.564Z,11.56
2023-05-19T06:05:16.014Z,11.75
2023-05-19T06:07:44.562Z,11.99
2023-05-19T06:10:12.988Z,12.21
2023-05-19T06:12:42.520Z,12.35
2023-05-19T06:15:11.614Z,12.48
2023-05-19T06:17:39.797Z,12.70
2023-05-19T06:20:11.112Z,12.99
2023-05-19T06:22:39.232Z,13.29
2023-05-19T06:25:08.958Z,13.49
2023-05-19T06:27:37.226Z,13.71
2023-05-19T06:30:06.421Z,13.76
2023-05-19T06:32:34.568Z,13.76
2023-05-19T06:35:02.728Z,13.76
2023-05-19T06:37:32.227Z,13.77
2023-05-19T06:40:00.313Z,13.86
2023-05-19T06:42:28.393Z,14.09
2023-05-19T06:44:56.941Z,14.31
2023-05-19T06:47:25.086Z,14.51
2023-05-19T06:49:55.406Z,14.56
2023-05-19T06:52:24.095Z,14.62
2023-05-19T06:54:53.605Z,14.69
2023-05-19T06:57:22.358Z,14.83
2023-05-19T06:59:50.553Z,14.90
2023-05-19T07:02:18.686Z,14.93
2023-05-19T07:04:47.414Z,14.86
2023-05-19T07:07:15.665Z,14.89
2023-05-19T07:09:43.841Z,14.92
2023-05-19T07:12:13.325Z,14.93
2023-05-19T07:14:41.458Z,14.95
2023-05-19T07:17:09.611Z,14.99
2023-05-19T07:19:37.735Z,15.08
2023-05-19T07:22:06.139Z,15.21
2023-05-19T07:24:34.260Z,15.31
2023-05-19T07:27:02.373Z,15.46
2023-05-19T07:29:31.872Z,15.61
2023-05-19T07:32:00.063Z,15.73
2023-05-19T07:34:28.245Z,15.87
2023-05-19T07:36:56.402Z,15.97
2023-05-19T07:39:27.798Z,16.25
2023-05-19T07:41:56.032Z,16.52
2023-05-19T07:44:24.157Z,16.73
2023-05-19T07:46:53.720Z,16.93
2023-05-19T07:49:21.828Z,17.08
2023-05-19T07:51:50.280Z,17.13
2023-05-19T07:54:18.438Z,17.21
2023-05-19T07:56:47.160Z,17.19
2023-05-19T07:59:15.818Z,17.26
2023-05-19T08:01:43.946Z,17.38
2023-05-19T08:04:14.164Z,17.50
2023-05-19T08:06:44.486Z,17.61
2023-05-19T08:09:12.993Z,17.64
2023-05-19T08:11:41.158Z,17.70
2023-05-19T08:14:09.231Z,17.80
2023-05-19T08:16:37.377Z,17.87
2023-05-19T08:19:07.288Z,17.93
2023-05-19T08:21:37.069Z,17.95
2023-05-19T08:24:05.376Z,17.91
2023-05-19T08:26:35.034Z,17.82
2023-05-19T08:29:04.478Z,17.77
2023-05-19T08:31:32.678Z,17.84
2023-05-19T08:34:00.859Z,18.00
2023-05-19T08:36:29.508Z,17.98
2023-05-19T08:38:59.046Z,17.95
2023-05-19T08:41:27.168Z,17.90
2023-05-19T08:43:55.492Z,17.98
2023-05-19T08:46:26.188Z,18.31
2023-05-19T08:48:59.158Z,18.66
2023-05-19T08:51:34.306Z,19.11
2023-05-19T08:54:10.460Z,19.29
2023-05-19T08:56:39.153Z,19.56
2023-05-19T08:59:08.809Z,19.57
2023-05-19T09:04:11.224Z,19.27
2023-05-19T09:06:41.005Z,19.30
2023-05-19T09:09:10.933Z,19.23
2023-05-19T09:11:39.082Z,19.16
2023-05-19T09:14:07.161Z,19.08
2023-05-19T09:16:35.797Z,18.95
2023-05-19T09:19:04.450Z,18.97
2023-05-19T09:21:33.583Z,18.92
2023-05-19T09:24:06.078Z,18.93
2023-05-19T09:26:39.915Z,18.98
2023-05-19T09:29:14.497Z,19.23
2023-05-19T09:31:49.877Z,19.41
2023-05-19T09:34:18.076Z,19.55
2023-05-19T09:36:49.495Z,19.65
2023-05-19T09:39:18.062Z,19.68
2023-05-19T09:41:48.128Z,19.60
2023-05-19T09:44:23.572Z,19.56
2023-05-19T09:46:52.780Z,19.77
2023-05-19T09:49:24.649Z,19.98
2023-05-19T09:51:55.037Z,20.15
2023-05-19T09:54:24.069Z,20.41
2023-05-19T09:57:00.930Z,20.54
2023-05-19T09:59:32.557Z,20.62
2023-05-19T10:02:02.249Z,20.56
2023-05-19T10:04:31.512Z,20.48
2023-05-19T10:07:00.539Z,20.61
2023-05-19T10:09:29.888Z,20.83
2023-05-19T10:12:00.175Z,21.04
2023-05-19T10:14:29.540Z,21.41
2023-05-19T10:16:59.257Z,21.44
2023-05-19T10:19:30.088Z,21.47
2023-05-19T10:21:58.420Z,21.69
2023-05-19T10:24:26.691Z,22.01
2023-05-19T10:26:57.772Z,22.05
2023-05-19T10:29:29.843Z,22.03
2023-05-19T10:31:59.834Z,22.04
2023-05-19T10:35:00.413Z,22.09
2023-05-19T10:37:35.880Z,22.14
2023-05-19T10:40:10.011Z,21.82
2023-05-19T10:42:44.885Z,21.65
2023-05-19T10:45:18.667Z,21.43
2023-05-19T10:47:47.261Z,21.43
2023-05-19T10:50:15.689Z,21.36
2023-05-19T10:52:44.724Z,21.32
2023-05-19T10:55:17.767Z,21.43
2023-05-19T10:57:56.730Z,21.38
2023-05-19T11:00:31.158Z,21.34
2023-05-19T11:03:14.220Z,21.40
2023-05-19T11:05:45.225Z,21.36
2023-05-19T11:08:13.761Z,21.46
2023-05-19T11:10:45.185Z,21.52
2023-05-19T11:13:22.575Z,21.54
2023-05-19T11:15:52.926Z,21.58
2023-05-19T11:18:21.384Z,21.54
2023-05-19T11:20:58.644Z,21.70
2023-05-19T11:23:27.030Z,21.84
2023-05-19T11:25:55.322Z,22.05
2023-05-19T11:28:26.262Z,22.04
2023-05-19T11:30:57.717Z,21.96
2023-05-19T11:33:27.802Z,21.85
2023-05-19T11:35:58.912Z,21.87
2023-05-19T11:38:28.242Z,21.98
2023-05-19T11:40:58.034Z,22.06
2023-05-19T11:43:26.469Z,22.02
2023-05-19T11:45:56.604Z,21.83
2023-05-19T11:48:25.782Z,21.78
2023-05-19T11:50:54.228Z,21.72
2023-05-19T11:53:22.562Z,21.69
2023-05-19T11:55:51.055Z,21.72
2023-05-19T11:58:26.008Z,21.67
2023-05-19T12:00:54.191Z,21.56
2023-05-19T12:03:28.048Z,21.42
2023-05-19T12:05:56.622Z,21.34
2023-05-19T12:08:25.783Z,21.35
2023-05-19T12:10:54.157Z,21.54
2023-05-19T12:13:23.397Z,21.76
2023-05-19T12:15:52.913Z,21.96
2023-05-19T12:18:21.418Z,22.09
2023-05-19T12:20:51.057Z,22.10
2023-05-19T12:23:19.312Z,22.12
2023-05-19T12:25:47.425Z,22.06
2023-05-19T12:28:17.256Z,21.92
2023-05-19T12:30:48.829Z,21.85
2023-05-19T12:33:17.089Z,21.95
2023-05-19T12:35:46.130Z,21.86
2023-05-19T12:38:15.841Z,21.75
2023-05-19T12:40:44.284Z,21.52
2023-05-19T12:43:21.000Z,21.11
2023-05-19T12:45:49.172Z,21.11
2023-05-19T12:48:17.475Z,21.04
2023-05-19T12:50:45.941Z,20.99
2023-05-19T12:53:15.925Z,20.85
2023-05-19T12:55:46.072Z,20.84
2023-05-19T12:58:16.579Z,20.98
2023-05-19T13:00:47.315Z,21.00
2023-05-19T13:03:17.300Z,20.98
2023-05-19T13:05:46.861Z,20.99
2023-05-19T13:08:17.528Z,20.96
2023-05-19T13:10:46.966Z,21.10
2023-05-19T13:13:15.117Z,21.17
2023-05-19T13:15:45.128Z,21.13
2023-05-19T13:18:14.192Z,21.17
2023-05-19T13:20:43.231Z,21.27
2023-05-19T13:23:11.764Z,21.36
2023-05-19T13:25:41.542Z,21.40
2023-05-19T13:28:10.324Z,21.34
2023-05-19T13:30:40.541Z,21.22
2023-05-19T13:33:08.881Z,21.09
2023-05-19T13:35:38.210Z,21.01
2023-05-19T13:38:06.747Z,20.91
2023-05-19T13:40:35.656Z,20.74
2023-05-19T13:43:06.111Z,20.75
2023-05-19T13:45:34.467Z,20.83
2023-05-19T13:48:02.751Z,20.79
2023-05-19T13:50:31.312Z,20.85
2023-05-19T13:52:59.453Z,20.86
2023-05-19T13:55:28.241Z,20.84
2023-05-19T13:57:56.399Z,20.78
2023-05-19T14:00:26.134Z,20.80
2023-05-19T14:02:54.319Z,20.74
2023-05-19T14:05:22.471Z,20.73
2023-05-19T14:07:50.744Z,20.76
2023-05-19T14:10:18.951Z,20.81
2023-05-19T14:13:14.103Z,20.68
2023-05-19T14:15:38.058Z,20.59
2023-05-19T14:18:07.075Z,20.38
2023-05-19T14:20:35.767Z,20.36
2023-05-19T14:23:04.284Z,20.37
2023-05-19T14:25:32.418Z,20.29
2023-05-19T14:28:00.597Z,20.16
2023-05-19T14:30:28.986Z,20.12
2023-05-19T14:32:58.702Z,19.98
2023-05-19T14:35:27.381Z,19.82
2023-05-19T14:37:55.539Z,19.67
2023-05-19T14:40:23.718Z,19.50
2023-05-19T14:42:51.792Z,19.26
2023-05-19T14:45:19.933Z,19.05
2023-05-19T14:47:48.293Z,18.94
2023-05-19T14:50:17.928Z,18.89
2023-05-19T14:52:46.085Z,18.88
2023-05-19T14:55:14.220Z,18.91
2023-05-19T14:57:42.358Z,18.88
2023-05-19T15:00:11.223Z,18.84
2023-05-19T15:02:39.419Z,18.86
2023-05-19T15:05:08.121Z,18.80
2023-05-19T15:07:37.594Z,18.77
2023-05-19T15:10:06.502Z,18.72
2023-05-19T15:12:34.630Z,18.73
2023-05-19T15:15:02.795Z,18.83
2023-05-19T15:17:31.008Z,18.83
2023-05-19T15:19:59.112Z,18.80
2023-05-19T15:22:27.359Z,18.79
2023-05-19T15:24:56.850Z,18.73
2023-05-19T15:27:24.949Z,18.70
2023-05-19T15:29:53.029Z,18.67
2023-05-19T15:32:21.303Z,18.65
2023-05-19T15:34:49.490Z,18.60
2023-05-19T15:37:17.634Z,18.56
2023-05-19T15:39:45.840Z,18.44
2023-05-19T15:42:15.300Z,18.36
2023-05-19T15:44:45.904Z,18.30
2023-05-19T15:47:14.036Z,18.23
2023-05-19T15:49:42.201Z,18.16
2023-05-19T15:52:10.366Z,18.09
2023-05-19T15:54:38.502Z,18.05
2023-05-19T15:57:06.998Z,17.99
2023-05-19T15:59:36.460Z,17.95
2023-05-19T16:02:04.696Z,17.92
2023-05-19T16:04:33.315Z,17.89
2023-05-19T16:07:01.390Z,17.86
2023-05-19T16:09:29.632Z,17.87
2023-05-19T16:11:57.747Z,17.88
2023-05-19T16:14:29.327Z,17.92
2023-05-19T16:16:59.902Z,17.91
2023-05-19T16:19:28.136Z,17.92
2023-05-19T16:21:56.357Z,17.95
2023-05-19T16:24:24.463Z,17.93
2023-05-19T16:26:53.848Z,17.91
2023-05-19T16:29:22.115Z,17.91
2023-05-19T16:31:50.403Z,17.87
2023-05-19T16:34:19.931Z,17.84
2023-05-19T16:36:48.057Z,17.86
2023-05-19T16:39:16.417Z,17.91
2023-05-19T16:41:44.556Z,18.06
2023-05-19T16:44:14.409Z,18.19
2023-05-19T16:46:42.744Z,18.32
2023-05-19T16:49:11.203Z,18.53
2023-05-19T16:51:40.698Z,18.74
2023-05-19T16:54:08.773Z,18.90
2023-05-19T16:56:36.929Z,18.95
2023-05-19T16:59:05.021Z,18.89
2023-05-19T17:01:33.219Z,19.02
2023-05-19T17:04:01.327Z,19.13
2023-05-19T17:06:29.551Z,19.05
2023-05-19T17:08:59.026Z,18.69
2023-05-19T17:11:27.560Z,18.15
2023-05-19T17:13:55.697Z,17.71
2023-05-19T17:16:24.549Z,17.42
2023-05-19T17:18:53.774Z,17.21
2023-05-19T17:21:22.138Z,17.05
2023-05-19T17:23:50.519Z,16.88
2023-05-19T17:26:19.996Z,16.78
2023-05-19T17:28:48.183Z,16.70
2023-05-19T17:31:16.607Z,16.61
2023-05-19T17:33:44.840Z,16.54
2023-05-19T17:36:12.958Z,16.48
2023-05-19T17:38:41.797Z,16.39
2023-05-19T17:41:10.954Z,16.39
2023-05-19T17:43:41.622Z,16.45
2023-05-19T17:46:10.349Z,16.43
2023-05-19T17:48:39.608Z,16.38
2023-05-19T17:51:07.947Z,16.29
2023-05-19T17:53:36.725Z,16.16
2023-05-19T17:56:07.333Z,16.06
2023-05-19T17:58:36.068Z,15.97
2023-05-19T18:01:06.126Z,15.91
2023-05-19T18:03:35.017Z,15.82
2023-05-19T18:06:03.279Z,15.77
2023-05-19T18:08:31.994Z,15.72
2023-05-19T18:11:01.252Z,15.65
2023-05-19T18:13:29.322Z,15.60
2023-05-19T18:15:59.660Z,15.59
2023-05-19T18:18:29.228Z,15.56
2023-05-19T18:20:57.339Z,15.52
2023-05-19T18:23:25.615Z,15.48
2023-05-19T18:25:53.977Z,15.44
2023-05-19T18:28:22.060Z,15.38
2023-05-19T18:30:59.738Z,15.30
2023-05-19T18:33:30.956Z,15.23
2023-05-19T18:35:59.729Z,15.18
2023-05-19T18:38:27.880Z,15.14
2023-05-19T18:40:56.722Z,15.08
2023-05-19T18:43:24.896Z,15.01
2023-05-19T18:45:53.106Z,14.94
2023-05-19T18:48:22.541Z,14.88
2023-05-19T18:50:52.181Z,14.83
2023-05-19T18:53:21.752Z,14.76
2023-05-19T18:55:49.940Z,14.69
2023-05-19T18:58:18.612Z,14.63
2023-05-19T19:00:46.714Z,14.56
2023-05-19T19:03:14.873Z,14.50
2023-05-19T19:05:43.126Z,14.45
2023-05-19T19:08:12.695Z,14.38
2023-05-19T19:10:40.820Z,14.33
2023-05-19T19:13:08.903Z,14.28
2023-05-19T19:15:37.736Z,14.21
2023-05-19T19:18:08.031Z,14.13
2023-05-19T19:20:36.374Z,14.09
2023-05-19T19:23:06.512Z,14.02
2023-05-19T19:25:36.197Z,13.97
2023-05-19T19:28:04.366Z,13.92
2023-05-19T19:30:32.756Z,13.87
2023-05-19T19:33:01.139Z,13.80
2023-05-19T19:35:29.347Z,13.71
2023-05-19T19:37:58.449Z,13.66
2023-05-19T19:40:26.703Z,13.59
2023-05-19T19:42:56.212Z,13.52
2023-05-19T19:45:24.352Z,13.47
2023-05-19T19:47:52.842Z,13.41
2023-05-19T19:50:21.366Z,13.37
2023-05-19T19:52:49.518Z,13.33
2023-05-19T19:55:17.633Z,13.28
2023-05-19T19:57:49.174Z,13.23
2023-05-19T20:00:19.439Z,13.19
2023-05-19T20:03:03.744Z,13.14
2023-05-19T20:05:33.544Z,13.09
2023-05-19T20:08:01.696Z,13.05
2023-05-19T20:10:29.818Z,13.00
2023-05-19T20:12:58.870Z,12.98
2023-05-19T20:15:28.426Z,12.92
2023-05-19T20:17:56.668Z,12.88
2023-05-19T20:20:24.877Z,12.84
2023-05-19T20:22:53.057Z,12.78
2023-05-19T20:25:21.360Z,12.75
2023-05-19T20:27:49.471Z,12.72
2023-05-19T20:30:17.729Z,12.67
2023-05-19T20:32:47.504Z,12.64
2023-05-19T20:35:15.888Z,12.59
2023-05-19T20:37:44.021Z,12.55
2023-05-19T20:40:12.830Z,12.51
2023-05-19T20:42:41.320Z,12.48
2023-05-19T20:45:10.044Z,12.44
2023-05-19T20:47:38.249Z,12.41
2023-05-19T20:50:08.898Z,12.35
2023-05-19T20:52:37.093Z,12.31
2023-05-19T20:55:05.502Z,12.25
2023-05-19T20:57:33.700Z,12.22
2023-05-19T21:00:01.836Z,12.17
2023-05-19T21:02:30.121Z,12.13
2023-05-19T21:04:58.315Z,12.06
2023-05-19T21:07:27.868Z,12.03
2023-05-19T21:09:56.639Z,12.01
2023-05-19T21:12:25.329Z,11.96
2023-05-19T21:14:53.502Z,11.92
2023-05-19T21:17:21.584Z,11.88
2023-05-19T21:19:50.774Z,11.84
2023-05-19T21:22:19.017Z,11.82
2023-05-19T21:24:48.588Z,11.78
2023-05-19T21:27:16.717Z,11.75
2023-05-19T21:29:44.877Z,11.72
2023-05-19T21:32:13.036Z,11.66
2023-05-19T21:34:41.163Z,11.63
2023-05-19T21:37:09.293Z,11.61
2023-05-19T21:39:37.391Z,11.59
2023-05-19T21:42:07.297Z,11.58
2023-05-19T21:44:35.586Z,11.55
2023-05-19T21:47:03.733Z,11.52
2023-05-19T21:49:32.134Z,11.48
2023-05-19T21:52:00.267Z,11.43
2023-05-19T21:54:28.402Z,11.39
2023-05-19T21:56:56.511Z,11.35
2023-05-19T21:59:26.360Z,11.31
2023-05-19T22:01:54.465Z,11.29
2023-05-19T22:04:23.325Z,11.26
2023-05-19T22:06:51.422Z,11.24
2023-05-19T22:09:19.586Z,11.22
2023-05-19T22:11:47.735Z,11.18
2023-05-19T22:14:15.827Z,11.16
2023-05-19T22:16:47.531Z,11.14
2023-05-19T22:19:16.079Z,11.10
2023-05-19T22:21:44.242Z,11.07
2023-05-19T22:24:12.371Z,11.04
2023-05-19T22:26:42.683Z,11.01
2023-05-19T22:29:15.019Z,10.99
2023-05-19T22:31:43.203Z,10.95
2023-05-19T22:34:14.442Z,10.90
2023-05-19T22:36:44.193Z,10.88
2023-05-19T22:39:12.669Z,10.85
2023-05-19T22:41:41.979Z,10.81
2023-05-19T22:44:11.383Z,10.75
2023-05-19T22:46:39.499Z,10.71
2023-05-19T22:49:07.586Z,10.67
2023-05-19T22:51:37.148Z,10.63
2023-05-19T22:54:05.321Z,10.58
2023-05-19T22:56:33.454Z,10.54
2023-05-19T22:59:01.564Z,10.48
2023-05-19T23:01:29.701Z,10.44
2023-05-19T23:03:57.842Z,10.38
2023-05-19T23:06:26.048Z,10.35
2023-05-19T23:09:02.091Z,10.30
2023-05-19T23:11:30.191Z,10.29
2023-05-19T23:13:58.270Z,10.24
2023-05-19T23:16:26.456Z,10.21
2023-05-19T23:18:54.640Z,10.18
2023-05-19T23:21:22.795Z,10.13
2023-05-19T23:23:50.974Z,10.10
2023-05-19T23:26:21.389Z,10.05
2023-05-19T23:28:49.655Z,10.02
2023-05-19T23:31:17.807Z,9.98
2023-05-19T23:33:46.030Z,9.95
2023-05-19T23:36:14.179Z,9.92
2023-05-19T23:38:42.301Z,9.89
2023-05-19T23:41:10.393Z,9.87
2023-05-19T23:43:40.102Z,9.84
2023-05-19T23:46:08.579Z,9.83
2023-05-19T23:48:36.798Z,9.81
2023-05-19T23:51:05.049Z,9.78
2023-05-19T23:53:33.191Z,9.75
2023-05-19T23:56:01.348Z,9.72
2023-05-19T23:58:29.596Z,9.67
